sensor_id;sensor_type;location;lat;lon;timestamp;temperature;humidity
12632;DHT22;6381;45.748;12.106;2022-10-23T00:01:51;16.50;99.90
12632;DHT22;6381;45.748;12.106;2022-10-23T00:04:21;16.60;99.90
12632;DHT22;6381;45.748;12.106;2022-10-23T00:06:52;16.60;99.90
12632;DHT22;6381;45.748;12.106;2022-10-23T00:09:23;16.50;99.90
12632;DHT22;6381;45.748;12.106;2022-10-23T00:11:52;16.30;99.90
12632;DHT22;6381;45.748;12.106;2022-10-23T00:14:22;16.50;99.90
12632;DHT22;6381;45.748;12.106;2022-10-23T00:16:52;16.50;99.90
12632;DHT22;6381;45.748;12.106;2022-10-23T00:19:20;16.50;99.90
12632;DHT22;6381;45.748;12.106;2022-10-23T00:21:49;16.20;99.90
12632;DHT22;6381;45.748;12.106;2022-10-23T00:24:19;16.10;99.90
12632;DHT22;6381;45.748;12.106;2022-10-23T00:26:48;16.00;99.90
12632;DHT22;6381;45.748;12.106;2022-10-23T00:29:17;16.10;99.90
12632;DHT22;6381;45.748;12.106;2022-10-23T00:31:46;16.10;99.90
12632;DHT22;6381;45.748;12.106;2022-10-23T00:34:16;16.30;99.90
12632;DHT22;6381;45.748;12.106;2022-10-23T00:36:45;16.30;99.90
12632;DHT22;6381;45.748;12.106;2022-10-23T00:39:14;16.20;99.90
12632;DHT22;6381;45.748;12.106;2022-10-23T00:41:44;16.40;99.90
12632;DHT22;6381;45.748;12.106;2022-10-23T00:47:14;16.30;99.90
12632;DHT22;6381;45.748;12.106;2022-10-23T00:49:44;16.40;99.90
12632;DHT22;6381;45.748;12.106;2022-10-23T00:52:13;16.20;99.90
12632;DHT22;6381;45.748;12.106;2022-10-23T00:54:42;16.00;99.90
12632;DHT22;6381;45.748;12.106;2022-10-23T00:57:14;16.10;99.90
12632;DHT22;6381;45.748;12.106;2022-10-23T00:59:43;16.00;99.90
12632;DHT22;6381;45.748;12.106;2022-10-23T01:02:11;16.00;99.90
12632;DHT22;6381;45.748;12.106;2022-10-23T01:04:40;16.00;99.90
12632;DHT22;6381;45.748;12.106;2022-10-23T01:07:13;15.90;99.90
12632;DHT22;6381;45.748;12.106;2022-10-23T01:09:48;15.90;99.90
12632;DHT22;6381;45.748;12.106;2022-10-23T01:12:25;15.90;99.90
12632;DHT22;6381;45.748;12.106;2022-10-23T01:15:00;14.70;99.90
12632;DHT22;6381;45.748;12.106;2022-10-23T01:17:34;15.90;99.90
12632;DHT22;6381;45.748;12.106;2022-10-23T01:20:18;15.80;99.90
12632;DHT22;6381;45.748;12.106;2022-10-23T01:26:01;16.00;99.90
12632;DHT22;6381;45.748;12.106;2022-10-23T01:28:39;15.90;99.90
12632;DHT22;6381;45.748;12.106;2022-10-23T01:31:15;16.00;99.90
12632;DHT22;6381;45.748;12.106;2022-10-23T01:33:47;15.90;99.90
12632;DHT22;6381;45.748;12.106;2022-10-23T01:36:26;16.00;99.90
12632;DHT22;6381;45.748;12.106;2022-10-23T01:39:00;15.90;99.90
12632;DHT22;6381;45.748;12.106;2022-10-23T01:41:39;16.00;99.90
12632;DHT22;6381;45.748;12.106;2022-10-23T01:44:22;16.00;99.90
12632;DHT22;6381;45.748;12.106;2022-10-23T01:46:53;16.20;99.90
12632;DHT22;6381;45.748;12.106;2022-10-23T01:49:23;16.10;99.90
12632;DHT22;6381;45.748;12.106;2022-10-23T01:51:57;16.10;99.90
12632;DHT22;6381;45.748;12.106;2022-10-23T01:54:30;16.10;99.90
12632;DHT22;6381;45.748;12.106;2022-10-23T01:57:01;15.80;99.90
12632;DHT22;6381;45.748;12.106;2022-10-23T01:59:35;15.80;99.90
12632;DHT22;6381;45.748;12.106;2022-10-23T02:02:09;15.80;99.90
12632;DHT22;6381;45.748;12.106;2022-10-23T02:04:47;16.00;99.90
12632;DHT22;6381;45.748;12.106;2022-10-23T02:07:16;16.00;99.90
12632;DHT22;6381;45.748;12.106;2022-10-23T02:09:45;15.90;99.90
12632;DHT22;6381;45.748;12.106;2022-10-23T02:12:21;15.90;99.90
12632;DHT22;6381;45.748;12.106;2022-10-23T02:14:59;16.00;99.90
12632;DHT22;6381;45.748;12.106;2022-10-23T02:17:39;16.20;99.90
12632;DHT22;6381;45.748;12.106;2022-10-23T02:20:18;16.00;99.90
12632;DHT22;6381;45.748;12.106;2022-10-23T02:22:54;16.20;99.90
12632;DHT22;6381;45.748;12.106;2022-10-23T02:25:31;16.10;99.90
12632;DHT22;6381;45.748;12.106;2022-10-23T02:28:05;16.00;99.90
12632;DHT22;6381;45.748;12.106;2022-10-23T02:30:45;16.00;99.90
12632;DHT22;6381;45.748;12.106;2022-10-23T02:33:15;16.00;99.90
12632;DHT22;6381;45.748;12.106;2022-10-23T02:35:45;16.20;99.90
12632;DHT22;6381;45.748;12.106;2022-10-23T02:38:31;16.10;99.90
12632;DHT22;6381;45.748;12.106;2022-10-23T02:41:14;16.00;99.90
12632;DHT22;6381;45.748;12.106;2022-10-23T02:43:52;16.00;99.90
12632;DHT22;6381;45.748;12.106;2022-10-23T02:46:28;16.00;99.90
12632;DHT22;6381;45.748;12.106;2022-10-23T02:49:05;15.90;99.90
12632;DHT22;6381;45.748;12.106;2022-10-23T02:51:42;16.00;99.90
12632;DHT22;6381;45.748;12.106;2022-10-23T02:54:18;15.80;99.90
12632;DHT22;6381;45.748;12.106;2022-10-23T02:56:55;15.90;99.90
12632;DHT22;6381;45.748;12.106;2022-10-23T02:59:33;16.00;99.90
12632;DHT22;6381;45.748;12.106;2022-10-23T03:02:10;16.20;99.90
12632;DHT22;6381;45.748;12.106;2022-10-23T03:04:44;16.10;99.90
12632;DHT22;6381;45.748;12.106;2022-10-23T03:07:14;15.90;99.90
12632;DHT22;6381;45.748;12.106;2022-10-23T03:09:45;16.20;99.90
12632;DHT22;6381;45.748;12.106;2022-10-23T03:12:14;16.20;99.90
12632;DHT22;6381;45.748;12.106;2022-10-23T03:14:42;16.20;99.90
12632;DHT22;6381;45.748;12.106;2022-10-23T03:17:12;16.10;99.90
12632;DHT22;6381;45.748;12.106;2022-10-23T03:19:45;16.10;99.90
12632;DHT22;6381;45.748;12.106;2022-10-23T03:22:14;16.10;99.90
12632;DHT22;6381;45.748;12.106;2022-10-23T03:24:42;16.10;99.90
12632;DHT22;6381;45.748;12.106;2022-10-23T03:27:12;15.90;99.90
12632;DHT22;6381;45.748;12.106;2022-10-23T03:29:41;15.80;99.90
12632;DHT22;6381;45.748;12.106;2022-10-23T03:32:09;15.80;99.90
12632;DHT22;6381;45.748;12.106;2022-10-23T03:34:39;15.80;99.90
12632;DHT22;6381;45.748;12.106;2022-10-23T03:37:08;15.80;99.90
12632;DHT22;6381;45.748;12.106;2022-10-23T03:39:37;16.00;99.90
12632;DHT22;6381;45.748;12.106;2022-10-23T03:42:06;16.00;99.90
12632;DHT22;6381;45.748;12.106;2022-10-23T03:44:34;16.00;99.90
12632;DHT22;6381;45.748;12.106;2022-10-23T03:47:03;16.10;99.90
12632;DHT22;6381;45.748;12.106;2022-10-23T03:49:32;16.10;99.90
12632;DHT22;6381;45.748;12.106;2022-10-23T03:52:07;16.00;99.90
12632;DHT22;6381;45.748;12.106;2022-10-23T03:54:36;16.10;99.90
12632;DHT22;6381;45.748;12.106;2022-10-23T03:57:04;16.10;99.90
12632;DHT22;6381;45.748;12.106;2022-10-23T03:59:33;16.10;99.90
12632;DHT22;6381;45.748;12.106;2022-10-23T04:02:04;16.00;99.90
12632;DHT22;6381;45.748;12.106;2022-10-23T04:04:33;16.00;99.90
12632;DHT22;6381;45.748;12.106;2022-10-23T04:07:02;16.10;99.90
12632;DHT22;6381;45.748;12.106;2022-10-23T04:09:33;16.10;99.90
12632;DHT22;6381;45.748;12.106;2022-10-23T04:12:03;16.10;99.90
12632;DHT22;6381;45.748;12.106;2022-10-23T04:14:32;15.90;99.90
12632;DHT22;6381;45.748;12.106;2022-10-23T04:17:02;16.00;99.90
12632;DHT22;6381;45.748;12.106;2022-10-23T04:19:31;16.00;99.90
12632;DHT22;6381;45.748;12.106;2022-10-23T04:21:59;15.90;99.90
12632;DHT22;6381;45.748;12.106;2022-10-23T04:24:29;15.90;99.90
12632;DHT22;6381;45.748;12.106;2022-10-23T04:26:59;16.00;99.90
12632;DHT22;6381;45.748;12.106;2022-10-23T04:29:29;16.10;99.90
12632;DHT22;6381;45.748;12.106;2022-10-23T04:31:58;16.10;99.90
12632;DHT22;6381;45.748;12.106;2022-10-23T04:34:27;16.10;99.90
12632;DHT22;6381;45.748;12.106;2022-10-23T04:36:56;16.00;99.90
12632;DHT22;6381;45.748;12.106;2022-10-23T04:39:25;15.90;99.90
12632;DHT22;6381;45.748;12.106;2022-10-23T04:41:54;15.80;99.90
12632;DHT22;6381;45.748;12.106;2022-10-23T04:44:25;15.70;99.90
12632;DHT22;6381;45.748;12.106;2022-10-23T04:46:54;15.90;99.90
12632;DHT22;6381;45.748;12.106;2022-10-23T04:49:23;15.80;99.90
12632;DHT22;6381;45.748;12.106;2022-10-23T04:52:10;15.80;99.90
12632;DHT22;6381;45.748;12.106;2022-10-23T04:55:01;15.80;99.90
12632;DHT22;6381;45.748;12.106;2022-10-23T04:57:38;16.00;99.90
12632;DHT22;6381;45.748;12.106;2022-10-23T05:00:12;15.90;99.90
12632;DHT22;6381;45.748;12.106;2022-10-23T05:02:50;15.80;99.90
12632;DHT22;6381;45.748;12.106;2022-10-23T05:05:20;15.70;99.90
12632;DHT22;6381;45.748;12.106;2022-10-23T05:07:52;15.60;99.90
12632;DHT22;6381;45.748;12.106;2022-10-23T05:10:40;15.90;99.90
12632;DHT22;6381;45.748;12.106;2022-10-23T05:13:11;15.80;99.90
12632;DHT22;6381;45.748;12.106;2022-10-23T05:15:42;15.90;99.90
12632;DHT22;6381;45.748;12.106;2022-10-23T05:18:13;15.80;99.90
12632;DHT22;6381;45.748;12.106;2022-10-23T05:20:44;15.90;99.90
12632;DHT22;6381;45.748;12.106;2022-10-23T05:23:15;15.90;99.90
12632;DHT22;6381;45.748;12.106;2022-10-23T05:25:55;16.10;99.90
12632;DHT22;6381;45.748;12.106;2022-10-23T05:28:23;16.00;99.90
12632;DHT22;6381;45.748;12.106;2022-10-23T05:30:54;15.90;99.90
12632;DHT22;6381;45.748;12.106;2022-10-23T05:33:26;15.80;99.90
12632;DHT22;6381;45.748;12.106;2022-10-23T05:35:55;15.70;99.90
12632;DHT22;6381;45.748;12.106;2022-10-23T05:38:25;15.60;99.90
12632;DHT22;6381;45.748;12.106;2022-10-23T05:40:55;15.60;99.90
12632;DHT22;6381;45.748;12.106;2022-10-23T05:43:24;15.60;99.90
12632;DHT22;6381;45.748;12.106;2022-10-23T05:46:09;15.50;99.90
12632;DHT22;6381;45.748;12.106;2022-10-23T05:48:52;15.60;99.90
12632;DHT22;6381;45.748;12.106;2022-10-23T05:51:41;15.50;99.90
12632;DHT22;6381;45.748;12.106;2022-10-23T05:54:19;15.60;99.90
12632;DHT22;6381;45.748;12.106;2022-10-23T05:57:14;15.60;99.90
12632;DHT22;6381;45.748;12.106;2022-10-23T05:59:50;15.70;99.90
12632;DHT22;6381;45.748;12.106;2022-10-23T06:02:26;15.70;99.90
12632;DHT22;6381;45.748;12.106;2022-10-23T06:05:10;15.90;99.90
12632;DHT22;6381;45.748;12.106;2022-10-23T06:08:11;15.90;99.90
12632;DHT22;6381;45.748;12.106;2022-10-23T06:10:40;15.90;99.90
12632;DHT22;6381;45.748;12.106;2022-10-23T06:13:10;16.00;99.90
12632;DHT22;6381;45.748;12.106;2022-10-23T06:15:39;16.00;99.90
12632;DHT22;6381;45.748;12.106;2022-10-23T06:18:17;15.90;99.90
12632;DHT22;6381;45.748;12.106;2022-10-23T06:21:01;16.00;99.90
12632;DHT22;6381;45.748;12.106;2022-10-23T06:23:32;16.00;99.90
12632;DHT22;6381;45.748;12.106;2022-10-23T06:26:33;16.00;99.90
12632;DHT22;6381;45.748;12.106;2022-10-23T06:29:06;15.90;99.90
12632;DHT22;6381;45.748;12.106;2022-10-23T06:31:36;16.00;99.90
12632;DHT22;6381;45.748;12.106;2022-10-23T06:34:07;16.00;99.90
12632;DHT22;6381;45.748;12.106;2022-10-23T06:36:37;15.90;99.90
12632;DHT22;6381;45.748;12.106;2022-10-23T06:39:24;15.90;99.90
12632;DHT22;6381;45.748;12.106;2022-10-23T06:42:18;16.00;99.90
12632;DHT22;6381;45.748;12.106;2022-10-23T06:45:07;16.10;99.90
12632;DHT22;6381;45.748;12.106;2022-10-23T06:48:04;16.10;99.90
12632;DHT22;6381;45.748;12.106;2022-10-23T06:50:54;16.40;99.90
12632;DHT22;6381;45.748;12.106;2022-10-23T06:53:34;16.50;99.90
12632;DHT22;6381;45.748;12.106;2022-10-23T06:56:25;16.60;99.90
12632;DHT22;6381;45.748;12.106;2022-10-23T06:58:56;16.60;99.90
12632;DHT22;6381;45.748;12.106;2022-10-23T07:01:24;16.70;99.90
12632;DHT22;6381;45.748;12.106;2022-10-23T07:03:55;16.80;99.90
12632;DHT22;6381;45.748;12.106;2022-10-23T07:06:27;16.90;99.90
12632;DHT22;6381;45.748;12.106;2022-10-23T07:08:58;17.10;99.90
12632;DHT22;6381;45.748;12.106;2022-10-23T07:11:45;17.10;99.90
12632;DHT22;6381;45.748;12.106;2022-10-23T07:14:14;17.20;99.90
12632;DHT22;6381;45.748;12.106;2022-10-23T07:16:43;17.40;99.90
12632;DHT22;6381;45.748;12.106;2022-10-23T07:19:12;17.50;99.90
12632;DHT22;6381;45.748;12.106;2022-10-23T07:22:01;17.60;99.90
12632;DHT22;6381;45.748;12.106;2022-10-23T07:24:47;17.60;99.90
12632;DHT22;6381;45.748;12.106;2022-10-23T07:27:30;17.90;99.90
12632;DHT22;6381;45.748;12.106;2022-10-23T07:30:01;18.00;99.90
12632;DHT22;6381;45.748;12.106;2022-10-23T07:32:36;18.10;99.90
12632;DHT22;6381;45.748;12.106;2022-10-23T07:35:24;18.10;99.90
12632;DHT22;6381;45.748;12.106;2022-10-23T07:38:07;18.10;99.90
12632;DHT22;6381;45.748;12.106;2022-10-23T07:40:40;18.20;99.90
12632;DHT22;6381;45.748;12.106;2022-10-23T07:43:14;18.40;99.90
12632;DHT22;6381;45.748;12.106;2022-10-23T07:45:46;18.50;99.90
12632;DHT22;6381;45.748;12.106;2022-10-23T07:48:31;18.50;99.90
12632;DHT22;6381;45.748;12.106;2022-10-23T07:51:03;18.50;99.90
12632;DHT22;6381;45.748;12.106;2022-10-23T07:53:41;18.50;99.90
12632;DHT22;6381;45.748;12.106;2022-10-23T07:56:49;18.50;99.90
12632;DHT22;6381;45.748;12.106;2022-10-23T07:59:41;18.60;99.90
12632;DHT22;6381;45.748;12.106;2022-10-23T08:02:12;18.50;99.90
12632;DHT22;6381;45.748;12.106;2022-10-23T08:04:42;18.60;99.90
12632;DHT22;6381;45.748;12.106;2022-10-23T08:07:23;18.50;99.90
12632;DHT22;6381;45.748;12.106;2022-10-23T08:09:56;18.60;99.90
12632;DHT22;6381;45.748;12.106;2022-10-23T08:12:25;18.60;99.90
12632;DHT22;6381;45.748;12.106;2022-10-23T08:14:54;18.70;99.90
12632;DHT22;6381;45.748;12.106;2022-10-23T08:17:25;18.80;99.90
12632;DHT22;6381;45.748;12.106;2022-10-23T08:19:54;19.00;99.90
12632;DHT22;6381;45.748;12.106;2022-10-23T08:22:26;19.20;99.90
12632;DHT22;6381;45.748;12.106;2022-10-23T08:24:57;19.20;99.90
12632;DHT22;6381;45.748;12.106;2022-10-23T08:27:26;19.20;99.90
12632;DHT22;6381;45.748;12.106;2022-10-23T08:29:55;19.40;99.90
12632;DHT22;6381;45.748;12.106;2022-10-23T08:32:23;19.60;99.90
12632;DHT22;6381;45.748;12.106;2022-10-23T08:34:58;19.60;99.90
12632;DHT22;6381;45.748;12.106;2022-10-23T08:37:29;19.80;99.90
12632;DHT22;6381;45.748;12.106;2022-10-23T08:40:00;19.90;99.90
12632;DHT22;6381;45.748;12.106;2022-10-23T08:42:59;20.10;99.90
12632;DHT22;6381;45.748;12.106;2022-10-23T08:45:31;20.10;99.90
12632;DHT22;6381;45.748;12.106;2022-10-23T08:48:22;20.20;99.90
12632;DHT22;6381;45.748;12.106;2022-10-23T08:51:30;20.30;99.90
12632;DHT22;6381;45.748;12.106;2022-10-23T08:54:06;20.30;99.90
12632;DHT22;6381;45.748;12.106;2022-10-23T08:56:41;20.40;99.90
12632;DHT22;6381;45.748;12.106;2022-10-23T08:59:16;20.40;99.90
12632;DHT22;6381;45.748;12.106;2022-10-23T09:01:52;20.50;99.90
12632;DHT22;6381;45.748;12.106;2022-10-23T09:04:22;20.60;99.90
12632;DHT22;6381;45.748;12.106;2022-10-23T09:06:57;20.40;99.90
12632;DHT22;6381;45.748;12.106;2022-10-23T09:09:54;20.50;99.90
12632;DHT22;6381;45.748;12.106;2022-10-23T09:12:27;18.90;99.90
12632;DHT22;6381;45.748;12.106;2022-10-23T09:15:13;20.90;99.90
12632;DHT22;6381;45.748;12.106;2022-10-23T09:17:43;20.80;99.90
12632;DHT22;6381;45.748;12.106;2022-10-23T09:20:17;20.90;99.90
12632;DHT22;6381;45.748;12.106;2022-10-23T09:22:48;21.00;99.90
12632;DHT22;6381;45.748;12.106;2022-10-23T09:25:20;21.30;99.50
12632;DHT22;6381;45.748;12.106;2022-10-23T09:27:53;21.40;98.90
12632;DHT22;6381;45.748;12.106;2022-10-23T09:30:30;21.40;99.40
12632;DHT22;6381;45.748;12.106;2022-10-23T09:33:00;21.20;98.90
12632;DHT22;6381;45.748;12.106;2022-10-23T09:35:29;21.30;98.30
12632;DHT22;6381;45.748;12.106;2022-10-23T09:37:58;21.40;98.30
12632;DHT22;6381;45.748;12.106;2022-10-23T09:40:30;21.50;98.20
12632;DHT22;6381;45.748;12.106;2022-10-23T09:43:15;21.70;98.30
12632;DHT22;6381;45.748;12.106;2022-10-23T09:45:44;21.90;97.30
12632;DHT22;6381;45.748;12.106;2022-10-23T09:48:23;21.80;98.20
12632;DHT22;6381;45.748;12.106;2022-10-23T09:50:54;21.90;97.80
12632;DHT22;6381;45.748;12.106;2022-10-23T09:53:30;21.90;98.00
12632;DHT22;6381;45.748;12.106;2022-10-23T09:56:02;22.00;97.50
12632;DHT22;6381;45.748;12.106;2022-10-23T09:58:38;21.90;97.70
12632;DHT22;6381;45.748;12.106;2022-10-23T10:01:21;22.00;97.90
12632;DHT22;6381;45.748;12.106;2022-10-23T10:03:53;22.10;97.10
12632;DHT22;6381;45.748;12.106;2022-10-23T10:06:27;21.90;97.50
12632;DHT22;6381;45.748;12.106;2022-10-23T10:08:59;22.00;97.70
12632;DHT22;6381;45.748;12.106;2022-10-23T10:11:34;22.00;97.10
12632;DHT22;6381;45.748;12.106;2022-10-23T10:14:29;22.20;96.80
12632;DHT22;6381;45.748;12.106;2022-10-23T10:17:07;22.30;97.10
12632;DHT22;6381;45.748;12.106;2022-10-23T10:19:56;22.50;96.40
12632;DHT22;6381;45.748;12.106;2022-10-23T10:22:39;22.50;96.50
12632;DHT22;6381;45.748;12.106;2022-10-23T10:25:14;22.80;95.80
12632;DHT22;6381;45.748;12.106;2022-10-23T10:27:51;22.60;95.60
12632;DHT22;6381;45.748;12.106;2022-10-23T10:30:24;22.50;95.50
12632;DHT22;6381;45.748;12.106;2022-10-23T10:33:01;22.80;95.00
12632;DHT22;6381;45.748;12.106;2022-10-23T10:35:37;22.80;95.40
12632;DHT22;6381;45.748;12.106;2022-10-23T10:47:11;22.90;94.20
12632;DHT22;6381;45.748;12.106;2022-10-23T10:49:54;23.00;94.50
12632;DHT22;6381;45.748;12.106;2022-10-23T10:52:43;23.00;94.40
12632;DHT22;6381;45.748;12.106;2022-10-23T10:55:18;23.20;94.00
12632;DHT22;6381;45.748;12.106;2022-10-23T10:57:51;23.20;94.30
12632;DHT22;6381;45.748;12.106;2022-10-23T11:00:28;23.00;94.40
12632;DHT22;6381;45.748;12.106;2022-10-23T11:03:10;23.20;95.00
12632;DHT22;6381;45.748;12.106;2022-10-23T11:05:45;23.60;93.70
12632;DHT22;6381;45.748;12.106;2022-10-23T11:08:17;23.70;93.90
12632;DHT22;6381;45.748;12.106;2022-10-23T11:10:51;23.70;93.60
12632;DHT22;6381;45.748;12.106;2022-10-23T11:13:25;24.10;93.00
12632;DHT22;6381;45.748;12.106;2022-10-23T11:15:56;23.90;93.20
12632;DHT22;6381;45.748;12.106;2022-10-23T11:18:29;23.70;93.30
12632;DHT22;6381;45.748;12.106;2022-10-23T11:21:07;23.90;93.30
12632;DHT22;6381;45.748;12.106;2022-10-23T11:24:10;24.50;92.70
12632;DHT22;6381;45.748;12.106;2022-10-23T11:26:53;24.40;92.50
12632;DHT22;6381;45.748;12.106;2022-10-23T11:29:47;24.30;92.70
12632;DHT22;6381;45.748;12.106;2022-10-23T11:32:34;24.60;92.10
12632;DHT22;6381;45.748;12.106;2022-10-23T11:35:22;24.50;91.50
12632;DHT22;6381;45.748;12.106;2022-10-23T11:38:06;24.80;91.80
12632;DHT22;6381;45.748;12.106;2022-10-23T11:40:36;25.10;90.90
12632;DHT22;6381;45.748;12.106;2022-10-23T11:43:10;25.20;90.70
12632;DHT22;6381;45.748;12.106;2022-10-23T11:45:40;24.80;90.20
12632;DHT22;6381;45.748;12.106;2022-10-23T11:48:22;24.20;90.60
12632;DHT22;6381;45.748;12.106;2022-10-23T11:50:53;24.80;90.20
12632;DHT22;6381;45.748;12.106;2022-10-23T11:53:37;25.10;90.40
12632;DHT22;6381;45.748;12.106;2022-10-23T11:56:24;25.20;90.10
12632;DHT22;6381;45.748;12.106;2022-10-23T11:58:56;24.90;89.90
12632;DHT22;6381;45.748;12.106;2022-10-23T12:01:33;24.90;90.50
12632;DHT22;6381;45.748;12.106;2022-10-23T12:04:15;25.40;90.20
12632;DHT22;6381;45.748;12.106;2022-10-23T12:06:49;25.40;88.90
12632;DHT22;6381;45.748;12.106;2022-10-23T12:09:25;24.90;88.40
12632;DHT22;6381;45.748;12.106;2022-10-23T12:12:12;24.90;89.80
12632;DHT22;6381;45.748;12.106;2022-10-23T12:14:42;25.30;87.90
12632;DHT22;6381;45.748;12.106;2022-10-23T12:17:33;25.10;90.10
12632;DHT22;6381;45.748;12.106;2022-10-23T12:20:17;25.10;90.60
12632;DHT22;6381;45.748;12.106;2022-10-23T12:23:04;24.70;90.20
12632;DHT22;6381;45.748;12.106;2022-10-23T12:25:45;24.80;90.70
12632;DHT22;6381;45.748;12.106;2022-10-23T12:28:30;25.30;90.30
12632;DHT22;6381;45.748;12.106;2022-10-23T12:31:19;25.40;88.70
12632;DHT22;6381;45.748;12.106;2022-10-23T12:33:58;25.40;88.20
12632;DHT22;6381;45.748;12.106;2022-10-23T12:36:46;25.30;90.10
12632;DHT22;6381;45.748;12.106;2022-10-23T12:39:26;25.00;90.90
12632;DHT22;6381;45.748;12.106;2022-10-23T12:41:55;24.80;90.90
12632;DHT22;6381;45.748;12.106;2022-10-23T12:44:25;25.00;91.00
12632;DHT22;6381;45.748;12.106;2022-10-23T12:46:57;25.50;90.50
12632;DHT22;6381;45.748;12.106;2022-10-23T12:49:28;25.60;88.10
12632;DHT22;6381;45.748;12.106;2022-10-23T12:51:59;25.30;89.30
12632;DHT22;6381;45.748;12.106;2022-10-23T12:54:31;25.30;89.40
12632;DHT22;6381;45.748;12.106;2022-10-23T12:57:00;25.40;88.70
12632;DHT22;6381;45.748;12.106;2022-10-23T12:59:35;25.50;88.00
12632;DHT22;6381;45.748;12.106;2022-10-23T13:02:16;25.50;85.90
12632;DHT22;6381;45.748;12.106;2022-10-23T13:04:51;24.70;85.90
12632;DHT22;6381;45.748;12.106;2022-10-23T13:07:24;23.90;90.10
12632;DHT22;6381;45.748;12.106;2022-10-23T13:09:57;23.80;91.70
12632;DHT22;6381;45.748;12.106;2022-10-23T13:12:32;23.80;92.70
12632;DHT22;6381;45.748;12.106;2022-10-23T13:15:14;23.60;93.40
12632;DHT22;6381;45.748;12.106;2022-10-23T13:17:45;23.50;93.80
12632;DHT22;6381;45.748;12.106;2022-10-23T13:20:24;23.50;93.80
12632;DHT22;6381;45.748;12.106;2022-10-23T13:22:58;23.30;94.30
12632;DHT22;6381;45.748;12.106;2022-10-23T13:25:31;23.40;94.70
12632;DHT22;6381;45.748;12.106;2022-10-23T13:28:12;23.40;94.60
12632;DHT22;6381;45.748;12.106;2022-10-23T13:30:43;23.50;94.40
12632;DHT22;6381;45.748;12.106;2022-10-23T13:33:20;23.30;94.70
12632;DHT22;6381;45.748;12.106;2022-10-23T13:35:56;23.20;95.20
12632;DHT22;6381;45.748;12.106;2022-10-23T13:38:30;23.10;95.10
12632;DHT22;6381;45.748;12.106;2022-10-23T13:41:03;23.50;94.40
12632;DHT22;6381;45.748;12.106;2022-10-23T13:43:32;23.90;93.90
12632;DHT22;6381;45.748;12.106;2022-10-23T13:46:01;24.50;93.40
12632;DHT22;6381;45.748;12.106;2022-10-23T13:48:31;24.80;92.60
12632;DHT22;6381;45.748;12.106;2022-10-23T13:51:05;24.40;91.60
12632;DHT22;6381;45.748;12.106;2022-10-23T13:53:37;24.00;92.90
12632;DHT22;6381;45.748;12.106;2022-10-23T13:56:09;23.80;93.40
12632;DHT22;6381;45.748;12.106;2022-10-23T13:58:40;23.60;94.10
12632;DHT22;6381;45.748;12.106;2022-10-23T14:01:17;23.40;94.20
12632;DHT22;6381;45.748;12.106;2022-10-23T14:03:48;23.30;94.80
12632;DHT22;6381;45.748;12.106;2022-10-23T14:06:17;23.30;94.90
12632;DHT22;6381;45.748;12.106;2022-10-23T14:08:46;23.30;95.20
12632;DHT22;6381;45.748;12.106;2022-10-23T14:11:17;23.10;95.40
12632;DHT22;6381;45.748;12.106;2022-10-23T14:13:46;23.10;95.50
12632;DHT22;6381;45.748;12.106;2022-10-23T14:16:17;23.10;95.90
12632;DHT22;6381;45.748;12.106;2022-10-23T14:18:46;23.10;96.10
12632;DHT22;6381;45.748;12.106;2022-10-23T14:21:16;23.00;96.40
12632;DHT22;6381;45.748;12.106;2022-10-23T14:23:46;22.90;96.00
12632;DHT22;6381;45.748;12.106;2022-10-23T14:26:18;22.80;96.10
12632;DHT22;6381;45.748;12.106;2022-10-23T14:28:47;22.80;96.00
12632;DHT22;6381;45.748;12.106;2022-10-23T14:31:19;22.70;96.50
12632;DHT22;6381;45.748;12.106;2022-10-23T14:33:51;22.50;97.30
12632;DHT22;6381;45.748;12.106;2022-10-23T14:36:21;22.40;97.40
12632;DHT22;6381;45.748;12.106;2022-10-23T14:38:53;22.30;97.60
12632;DHT22;6381;45.748;12.106;2022-10-23T14:41:25;22.30;97.50
12632;DHT22;6381;45.748;12.106;2022-10-23T14:43:53;22.20;98.30
12632;DHT22;6381;45.748;12.106;2022-10-23T14:46:23;22.20;98.50
12632;DHT22;6381;45.748;12.106;2022-10-23T14:48:52;22.30;99.00
12632;DHT22;6381;45.748;12.106;2022-10-23T14:51:29;21.90;99.30
12632;DHT22;6381;45.748;12.106;2022-10-23T14:53:59;21.70;99.50
12632;DHT22;6381;45.748;12.106;2022-10-23T14:56:31;21.70;99.70
12632;DHT22;6381;45.748;12.106;2022-10-23T14:59:00;21.80;99.90
12632;DHT22;6381;45.748;12.106;2022-10-23T15:01:32;21.70;99.90
12632;DHT22;6381;45.748;12.106;2022-10-23T15:04:01;21.70;99.90
12632;DHT22;6381;45.748;12.106;2022-10-23T15:06:30;21.60;99.90
12632;DHT22;6381;45.748;12.106;2022-10-23T15:09:03;21.60;99.90
12632;DHT22;6381;45.748;12.106;2022-10-23T15:11:33;21.60;99.90
12632;DHT22;6381;45.748;12.106;2022-10-23T15:14:02;21.60;99.90
12632;DHT22;6381;45.748;12.106;2022-10-23T15:16:31;21.60;99.90
12632;DHT22;6381;45.748;12.106;2022-10-23T15:18:59;21.50;99.90
12632;DHT22;6381;45.748;12.106;2022-10-23T15:21:28;21.50;99.90
12632;DHT22;6381;45.748;12.106;2022-10-23T15:23:59;21.50;99.90
12632;DHT22;6381;45.748;12.106;2022-10-23T15:26:28;21.40;99.90
12632;DHT22;6381;45.748;12.106;2022-10-23T15:29:00;21.40;99.90
12632;DHT22;6381;45.748;12.106;2022-10-23T15:31:47;21.40;99.90
12632;DHT22;6381;45.748;12.106;2022-10-23T15:34:17;21.30;99.90
12632;DHT22;6381;45.748;12.106;2022-10-23T15:36:48;21.30;99.90
12632;DHT22;6381;45.748;12.106;2022-10-23T15:39:18;21.30;99.90
12632;DHT22;6381;45.748;12.106;2022-10-23T15:41:50;21.30;99.90
12632;DHT22;6381;45.748;12.106;2022-10-23T15:44:22;21.30;99.90
12632;DHT22;6381;45.748;12.106;2022-10-23T15:46:51;21.30;99.90
12632;DHT22;6381;45.748;12.106;2022-10-23T15:49:24;21.20;99.90
12632;DHT22;6381;45.748;12.106;2022-10-23T15:51:52;21.20;99.90
12632;DHT22;6381;45.748;12.106;2022-10-23T15:54:22;21.10;99.90
12632;DHT22;6381;45.748;12.106;2022-10-23T15:56:56;21.10;99.90
12632;DHT22;6381;45.748;12.106;2022-10-23T15:59:34;20.90;99.90
12632;DHT22;6381;45.748;12.106;2022-10-23T16:02:06;21.00;99.90
12632;DHT22;6381;45.748;12.106;2022-10-23T16:04:38;20.80;99.90
12632;DHT22;6381;45.748;12.106;2022-10-23T16:07:10;20.70;99.90
12632;DHT22;6381;45.748;12.106;2022-10-23T16:09:38;20.70;99.90
12632;DHT22;6381;45.748;12.106;2022-10-23T16:12:07;20.60;99.90
12632;DHT22;6381;45.748;12.106;2022-10-23T16:14:39;20.60;99.90
12632;DHT22;6381;45.748;12.106;2022-10-23T16:17:08;20.60;99.90
12632;DHT22;6381;45.748;12.106;2022-10-23T16:19:36;20.50;99.90
12632;DHT22;6381;45.748;12.106;2022-10-23T16:22:05;20.40;99.90
12632;DHT22;6381;45.748;12.106;2022-10-23T16:24:34;20.50;99.90
12632;DHT22;6381;45.748;12.106;2022-10-23T16:27:04;20.40;99.90
12632;DHT22;6381;45.748;12.106;2022-10-23T16:29:32;20.40;99.90
12632;DHT22;6381;45.748;12.106;2022-10-23T16:32:03;20.40;99.90